Time;durP1;ratioP1;P1;durP2;ratioP2;P2;SDS_P1;SDS_P2;PMS_P1;PMS_P2;Temp;Humidity;BMP_temperature;BMP_pressure;BME280_temperature;BME280_humidity;BME280_pressure;Samples;Min_cycle;Max_cycle;Signal;HPM_P1;HPM_P2
2023/05/19 00:01:42;;;;;;;3.70;1.90;;;18.90;76.00;;;;;;6369661;22;20002;-79
2023/05/19 00:04:11;;;;;;;3.55;1.90;;;18.80;75.90;;;;;;6370080;22;20428;-79
2023/05/19 00:06:37;;;;;;;3.80;1.88;;;18.80;76.10;;;;;;6370568;22;20002;-79
2023/05/19 00:09:06;;;;;;;3.17;1.70;;;18.80;76.10;;;;;;6369099;22;20017;-79
2023/05/19 00:11:36;;;;;;;3.53;2.30;;;18.80;76.30;;;;;;6370064;22;20013;-79
2023/05/19 00:14:05;;;;;;;3.88;1.80;;;18.80;76.30;;;;;;6369169;22;20014;-79
2023/05/19 00:16:31;;;;;;;4.43;2.10;;;18.80;76.10;;;;;;6370226;22;19998;-78
2023/05/19 00:18:58;;;;;;;2.78;1.85;;;18.70;76.00;;;;;;6369456;22;20346;-78
2023/05/19 00:21:24;;;;;;;3.50;1.90;;;18.70;75.90;;;;;;6370296;22;20404;-78
2023/05/19 00:23:50;;;;;;;11.70;2.78;;;18.70;75.90;;;;;;6369419;22;19998;-78
2023/05/19 00:26:16;;;;;;;2.60;2.03;;;18.70;75.90;;;;;;6368931;22;20456;-78
2023/05/19 00:28:41;;;;;;;3.97;1.92;;;18.60;75.90;;;;;;6369142;22;20436;-78
2023/05/19 00:31:07;;;;;;;2.35;1.98;;;18.60;76.00;;;;;;6369704;22;20046;-78
2023/05/19 00:33:33;;;;;;;5.00;2.50;;;18.60;76.20;;;;;;6369635;22;19998;-78
2023/05/19 00:36:02;;;;;;;3.53;2.00;;;18.50;76.00;;;;;;6369171;22;19999;-78
2023/05/19 00:38:29;;;;;;;2.55;1.88;;;18.50;76.00;;;;;;6368930;22;19999;-78
2023/05/19 00:40:55;;;;;;;3.70;1.90;;;18.50;76.10;;;;;;6370187;22;20005;-78
2023/05/19 00:43:21;;;;;;;3.60;2.30;;;18.40;75.90;;;;;;6368601;22;20006;-78
2023/05/19 00:45:47;;;;;;;4.35;2.28;;;18.40;76.10;;;;;;6369876;22;20305;-78
2023/05/19 00:48:12;;;;;;;3.53;1.77;;;18.40;76.20;;;;;;6369440;22;20300;-78
2023/05/19 00:50:39;;;;;;;6.90;2.30;;;18.40;76.20;;;;;;6341161;22;20061;-78
2023/05/19 00:53:04;;;;;;;2.95;2.22;;;18.30;76.20;;;;;;6369981;22;19999;-78
2023/05/19 00:55:32;;;;;;;4.60;2.13;;;18.30;76.20;;;;;;6368863;22;20412;-78
2023/05/19 00:57:58;;;;;;;3.67;1.88;;;18.30;76.20;;;;;;6368856;22;19999;-78
2023/05/19 01:00:24;;;;;;;3.25;2.20;;;18.30;76.20;;;;;;6369501;22;20425;-78
2023/05/19 01:02:50;;;;;;;2.58;2.15;;;18.30;76.20;;;;;;6368944;22;20002;-79
2023/05/19 01:05:16;;;;;;;5.35;2.50;;;18.20;76.10;;;;;;6368877;22;20006;-79
2023/05/19 01:07:42;;;;;;;3.70;2.50;;;18.20;76.00;;;;;;6369024;22;20304;-77
2023/05/19 01:10:08;;;;;;;4.10;1.92;;;18.20;76.20;;;;;;6369273;22;20052;-77
2023/05/19 01:12:35;;;;;;;3.10;1.98;;;18.20;76.20;;;;;;6369270;22;20038;-77
2023/05/19 01:15:02;;;;;;;3.58;2.40;;;18.20;76.40;;;;;;6368685;22;19997;-77
2023/05/19 01:17:54;;;;;;;5.50;2.30;;;18.20;76.30;;;;;;6368831;22;20416;-79
2023/05/19 01:20:35;;;;;;;3.22;2.10;;;18.20;76.50;;;;;;6369889;22;19999;-79
2023/05/19 01:23:06;;;;;;;;;;;18.20;76.50;;;;;;6371687;22;20013;-79
2023/05/19 01:25:50;;;;;;;6.38;1.98;;;18.20;76.60;;;;;;6370940;22;19926;-79
2023/05/19 01:28:35;;;;;;;4.85;2.63;;;18.20;76.50;;;;;;6370531;22;19994;-80
2023/05/19 01:31:03;;;;;;;5.50;2.75;;;18.10;76.60;;;;;;6371161;22;20010;-80
2023/05/19 01:33:31;;;;;;;3.10;2.20;;;18.10;76.80;;;;;;6370504;22;19994;-80
2023/05/19 01:35:58;;;;;;;2.85;2.10;;;18.10;76.50;;;;;;6342762;22;20324;-80
2023/05/19 01:38:26;;;;;;;3.92;2.15;;;18.10;76.40;;;;;;6371235;22;20070;-80
2023/05/19 01:40:54;;;;;;;2.72;1.92;;;18.10;76.40;;;;;;6371163;22;20002;-80
2023/05/19 01:43:22;;;;;;;3.28;2.35;;;18.10;76.40;;;;;;6370465;22;19998;-80
2023/05/19 01:45:49;;;;;;;2.95;2.05;;;18.10;76.50;;;;;;6369454;22;20006;-80
2023/05/19 01:48:16;;;;;;;3.35;2.28;;;18.10;76.50;;;;;;6370711;22;20002;-80
2023/05/19 01:50:45;;;;;;;2.75;2.22;;;18.10;76.50;;;;;;6371195;22;20377;-80
2023/05/19 01:53:11;;;;;;;4.68;2.00;;;18.10;76.60;;;;;;6371430;22;19994;-80
2023/05/19 01:55:48;;;;;;;2.55;1.83;;;18.10;76.80;;;;;;6370465;22;20002;-80
2023/05/19 01:58:43;;;;;;;4.65;2.45;;;18.10;76.80;;;;;;6370524;22;20047;-80
2023/05/19 02:01:47;;;;;;;2.75;2.03;;;18.10;77.10;;;;;;6371136;22;20487;-80
2023/05/19 02:04:19;;;;;;;3.78;2.20;;;18.00;77.20;;;;;;6370594;22;19999;-80
2023/05/19 02:07:27;;;;;;;3.97;2.20;;;18.00;77.30;;;;;;6370519;22;20325;-80
2023/05/19 02:10:10;;;;;;;4.57;2.30;;;18.00;77.40;;;;;;6370745;22;20123;-80
2023/05/19 02:12:39;;;;;;;3.97;2.40;;;18.00;77.40;;;;;;6370565;22;20085;-79
2023/05/19 02:15:14;;;;;;;2.50;2.10;;;18.00;77.50;;;;;;6370760;22;20002;-79
2023/05/19 02:17:46;;;;;;;3.90;2.03;;;18.00;76.90;;;;;;6371008;22;20073;-79
2023/05/19 02:20:13;;;;;;;5.20;2.28;;;18.00;76.80;;;;;;6371155;22;20424;-79
2023/05/19 02:22:38;;;;;;;4.95;1.98;;;18.00;77.10;;;;;;6370543;22;20002;-80
2023/05/19 02:25:04;;;;;;;2.85;2.33;;;18.00;77.00;;;;;;6370640;22;20274;-80
2023/05/19 02:27:30;;;;;;;3.92;2.35;;;18.00;76.80;;;;;;6342801;22;20478;-80
2023/05/19 02:29:56;;;;;;;2.47;1.83;;;18.00;76.80;;;;;;6370965;22;20014;-80
2023/05/19 02:32:22;;;;;;;3.22;2.30;;;18.00;76.70;;;;;;6370262;22;20002;-80
2023/05/19 02:34:47;;;;;;;3.78;2.60;;;18.00;76.80;;;;;;6370120;22;20424;-80
2023/05/19 02:37:14;;;;;;;5.28;3.05;;;18.00;76.80;;;;;;6370445;22;20017;-80
2023/05/19 02:39:43;;;;;;;3.78;2.60;;;18.00;76.80;;;;;;6371324;22;19994;-80
2023/05/19 02:42:09;;;;;;;4.15;2.38;;;18.00;76.80;;;;;;6370697;22;20493;-80
2023/05/19 02:44:35;;;;;;;3.47;2.53;;;17.90;76.70;;;;;;6369574;22;20010;-79
2023/05/19 02:47:01;;;;;;;7.25;2.92;;;17.90;76.70;;;;;;6370186;22;20007;-79
2023/05/19 02:49:29;;;;;;;4.57;2.70;;;17.90;76.70;;;;;;6342648;22;20010;-79
2023/05/19 02:51:55;;;;;;;6.28;2.35;;;17.90;76.80;;;;;;6370522;22;20033;-79
2023/05/19 02:54:21;;;;;;;2.78;2.20;;;17.90;76.90;;;;;;6369482;22;19994;-80
2023/05/19 02:56:47;;;;;;;4.68;2.88;;;17.90;76.80;;;;;;6342572;22;20010;-80
2023/05/19 02:59:13;;;;;;;4.57;2.50;;;17.90;77.00;;;;;;6370143;22;20320;-80
2023/05/19 03:01:39;;;;;;;3.83;2.38;;;17.80;77.00;;;;;;6369935;22;20002;-80
2023/05/19 03:04:04;;;;;;;3.58;2.25;;;17.80;76.90;;;;;;6369117;22;20030;-78
2023/05/19 03:06:31;;;;;;;2.47;2.10;;;17.80;77.00;;;;;;6342220;22;20427;-79
2023/05/19 03:08:57;;;;;;;4.18;2.30;;;17.70;77.00;;;;;;6369784;22;19998;-79
2023/05/19 03:11:23;;;;;;;4.82;2.45;;;17.80;77.10;;;;;;6370109;22;20027;-79
2023/05/19 03:13:48;;;;;;;3.42;2.17;;;17.80;77.20;;;;;;6370394;22;19994;-79
2023/05/19 03:16:14;;;;;;;8.70;2.53;;;17.70;77.10;;;;;;6370733;22;20309;-78
2023/05/19 03:18:40;;;;;;;3.45;2.42;;;17.70;77.10;;;;;;6369982;22;19994;-78
2023/05/19 03:21:16;;;;;;;4.43;2.58;;;17.70;77.00;;;;;;6369511;22;20059;-78
2023/05/19 03:23:42;;;;;;;4.40;2.38;;;17.70;77.10;;;;;;6369337;22;20336;-79
2023/05/19 03:26:07;;;;;;;3.67;2.30;;;17.80;77.20;;;;;;6370602;22;20009;-78
2023/05/19 03:28:33;;;;;;;4.75;2.40;;;17.70;77.30;;;;;;6369386;22;20006;-78
2023/05/19 03:30:58;;;;;;;2.83;2.20;;;17.70;77.30;;;;;;6369388;22;20073;-78
2023/05/19 03:33:26;;;;;;;3.97;2.80;;;17.70;77.30;;;;;;6370068;22;20417;-78
2023/05/19 03:35:52;;;;;;;5.05;2.63;;;17.70;77.50;;;;;;6369625;22;19998;-78
2023/05/19 03:38:18;;;;;;;4.55;3.20;;;17.70;77.60;;;;;;6369246;22;20002;-78
2023/05/19 03:40:43;;;;;;;5.00;3.10;;;17.70;77.70;;;;;;6370733;22;20094;-79
2023/05/19 03:43:09;;;;;;;5.47;2.70;;;17.60;77.70;;;;;;6369299;22;20031;-78
2023/05/19 03:45:35;;;;;;;6.05;2.55;;;17.60;78.00;;;;;;6370061;22;19999;-78
2023/05/19 03:48:00;;;;;;;3.47;2.58;;;17.60;78.10;;;;;;6369796;22;21067;-78
2023/05/19 03:50:27;;;;;;;4.43;3.08;;;17.60;78.30;;;;;;6369810;22;19998;-79
2023/05/19 03:52:54;;;;;;;5.18;2.70;;;17.60;78.30;;;;;;6341925;22;20002;-79
2023/05/19 03:55:20;;;;;;;4.97;3.05;;;17.50;78.20;;;;;;6368418;22;19998;-79
2023/05/19 03:57:46;;;;;;;4.63;2.65;;;17.50;78.40;;;;;;6369558;22;19998;-79
2023/05/19 04:00:12;;;;;;;5.70;2.88;;;17.50;78.50;;;;;;6369639;22;20002;-79
2023/05/19 04:02:38;;;;;;;4.60;2.80;;;17.50;78.50;;;;;;6368889;22;20051;-78
2023/05/19 04:05:04;;;;;;;4.70;2.92;;;17.50;78.50;;;;;;6369203;22;19998;-78
2023/05/19 04:07:30;;;;;;;4.53;2.75;;;17.50;78.60;;;;;;6369787;22;20077;-78
2023/05/19 04:09:56;;;;;;;4.88;2.80;;;17.60;78.60;;;;;;6369477;22;20002;-78
2023/05/19 04:12:22;;;;;;;3.97;2.67;;;17.60;78.80;;;;;;6368829;22;20047;-78
2023/05/19 04:14:48;;;;;;;4.05;2.75;;;17.60;78.80;;;;;;6369554;22;20302;-78
2023/05/19 04:17:13;;;;;;;3.65;3.03;;;17.60;78.80;;;;;;6369185;22;20005;-78
2023/05/19 04:19:39;;;;;;;6.07;3.40;;;17.60;79.00;;;;;;6370120;22;20505;-78
2023/05/19 04:22:05;;;;;;;5.05;2.72;;;17.60;78.80;;;;;;6370190;22;20002;-78
2023/05/19 04:24:32;;;;;;;4.75;3.30;;;17.60;78.80;;;;;;6370101;22;20055;-79
2023/05/19 04:27:01;;;;;;;2.80;2.42;;;17.60;78.80;;;;;;6368790;22;20320;-79
2023/05/19 04:29:28;;;;;;;3.80;2.50;;;17.60;78.70;;;;;;6341418;22;20022;-78
2023/05/19 04:31:54;;;;;;;5.68;2.72;;;17.60;78.70;;;;;;6370102;22;19998;-78
2023/05/19 04:34:20;;;;;;;2.80;2.05;;;17.60;78.60;;;;;;6368124;22;20050;-86
2023/05/19 04:36:46;;;;;;;2.70;2.20;;;17.50;78.60;;;;;;6368308;22;20069;-77
2023/05/19 04:39:13;;;;;;;6.00;2.83;;;17.50;78.60;;;;;;6369372;22;19995;-77
2023/05/19 04:41:39;;;;;;;4.40;2.97;;;17.50;78.70;;;;;;6369982;22;20012;-77
2023/05/19 04:44:08;;;;;;;3.90;2.92;;;17.60;78.70;;;;;;6369231;22;20023;-77
2023/05/19 04:46:34;;;;;;;5.55;2.83;;;17.60;78.60;;;;;;6368143;22;20317;-79
2023/05/19 04:49:00;;;;;;;8.77;3.65;;;17.60;78.60;;;;;;6367641;22;20029;-78
2023/05/19 04:51:27;;;;;;;3.33;2.67;;;17.60;78.80;;;;;;6368714;22;20002;-78
2023/05/19 04:53:54;;;;;;;4.40;2.95;;;17.60;78.80;;;;;;6340280;22;20812;-77
2023/05/19 04:56:20;;;;;;;4.85;2.50;;;17.50;78.90;;;;;;6342794;22;19998;-77
2023/05/19 04:58:46;;;;;;;3.55;2.75;;;17.60;79.20;;;;;;6371154;22;19998;-77
2023/05/19 05:01:12;;;;;;;3.83;2.42;;;17.60;79.10;;;;;;6370834;22;20026;-77
2023/05/19 05:03:38;;;;;;;5.38;2.83;;;17.60;79.10;;;;;;6343682;22;20051;-77
2023/05/19 05:06:05;;;;;;;3.20;2.03;;;17.60;79.30;;;;;;6371590;22;20002;-76
2023/05/19 05:08:31;;;;;;;6.45;3.13;;;17.60;79.10;;;;;;6371592;22;20000;-76
2023/05/19 05:10:57;;;;;;;3.13;2.30;;;17.60;79.20;;;;;;6371589;22;20227;-76
2023/05/19 05:13:23;;;;;;;3.92;2.58;;;17.50;79.20;;;;;;6371340;22;19994;-77
2023/05/19 05:15:51;;;;;;;4.22;2.35;;;17.60;79.20;;;;;;6370314;22;19998;-76
2023/05/19 05:18:17;;;;;;;4.95;2.97;;;17.60;78.90;;;;;;6370361;22;19998;-76
2023/05/19 05:20:43;;;;;;;4.00;2.75;;;17.60;78.80;;;;;;6371028;22;20327;-75
2023/05/19 05:23:13;;;;;;;3.58;2.35;;;17.70;78.90;;;;;;6371810;22;19998;-75
2023/05/19 05:25:43;;;;;;;3.22;2.20;;;17.70;79.10;;;;;;6370171;22;20001;-76
2023/05/19 05:28:09;;;;;;;6.05;2.95;;;17.70;79.00;;;;;;6368832;22;20043;-75
2023/05/19 05:30:35;;;;;;;3.95;2.85;;;17.70;79.10;;;;;;6369756;22;20002;-76
2023/05/19 05:33:01;;;;;;;3.60;2.47;;;17.60;79.00;;;;;;6370410;22;19994;-75
2023/05/19 05:35:27;;;;;;;4.22;2.95;;;17.60;79.30;;;;;;6370851;22;20088;-75
2023/05/19 05:37:53;;;;;;;4.13;2.60;;;17.60;79.40;;;;;;6371469;22;20014;-75
2023/05/19 05:40:19;;;;;;;3.97;2.30;;;17.70;79.50;;;;;;6371498;22;20024;-75
2023/05/19 05:42:45;;;;;;;2.83;2.40;;;17.70;79.60;;;;;;6371055;22;20075;-75
2023/05/19 05:45:10;;;;;;;4.93;2.55;;;17.70;79.40;;;;;;6371531;22;20333;-75
2023/05/19 05:47:38;;;;;;;4.72;2.70;;;17.80;79.30;;;;;;6342506;22;20432;-75
2023/05/19 05:50:05;;;;;;;4.13;2.88;;;17.80;79.30;;;;;;6371343;22;20051;-74
2023/05/19 05:52:31;;;;;;;3.83;2.60;;;17.90;79.60;;;;;;6371043;22;19998;-73
2023/05/19 05:54:57;;;;;;;3.28;2.42;;;17.90;79.50;;;;;;6371334;22;20012;-74
2023/05/19 05:57:23;;;;;;;3.05;2.35;;;17.90;79.40;;;;;;6370904;22;19998;-74
2023/05/19 05:59:49;;;;;;;4.93;2.20;;;17.90;79.20;;;;;;6369856;22;20063;-74
2023/05/19 06:02:16;;;;;;;3.85;2.45;;;18.00;79.20;;;;;;6370816;22;20481;-74
2023/05/19 06:04:44;;;;;;;3.97;2.50;;;18.00;79.10;;;;;;6369500;22;20044;-74
2023/05/19 06:07:11;;;;;;;4.30;2.20;;;18.10;78.90;;;;;;6341701;22;20381;-79
2023/05/19 06:09:36;;;;;;;2.42;2.22;;;18.10;78.90;;;;;;6371433;22;20002;-80
2023/05/19 06:12:02;;;;;;;2.58;2.20;;;18.10;79.00;;;;;;6373180;22;20331;-79
2023/05/19 06:14:28;;;;;;;3.53;2.42;;;18.10;79.00;;;;;;6371654;22;19998;-79
2023/05/19 06:16:53;;;;;;;4.15;2.50;;;18.10;78.80;;;;;;6370727;22;19998;-79
2023/05/19 06:19:20;;;;;;;3.22;2.33;;;18.10;78.90;;;;;;6370640;22;19995;-86
2023/05/19 06:21:45;;;;;;;4.55;1.85;;;18.20;79.20;;;;;;6370986;22;20047;-80
2023/05/19 06:24:11;;;;;;;4.03;2.30;;;18.20;78.80;;;;;;6370496;22;20002;-79
2023/05/19 06:26:36;;;;;;;5.68;2.70;;;18.20;79.10;;;;;;6371281;22;20297;-81
2023/05/19 06:29:02;;;;;;;4.70;2.33;;;18.20;78.90;;;;;;6370749;22;20071;-83
2023/05/19 06:31:28;;;;;;;4.88;2.33;;;18.30;78.70;;;;;;6371035;22;20006;-82
2023/05/19 06:33:55;;;;;;;5.43;2.50;;;18.40;78.90;;;;;;6371461;22;19998;-89
2023/05/19 06:36:21;;;;;;;2.85;2.00;;;18.40;78.70;;;;;;6371476;22;20047;-73
2023/05/19 06:38:46;;;;;;;4.30;2.25;;;18.50;78.80;;;;;;6370606;22;20066;-76
2023/05/19 06:41:12;;;;;;;3.22;1.90;;;18.50;78.80;;;;;;6370292;22;20055;-76
2023/05/19 06:43:37;;;;;;;5.43;2.10;;;18.70;78.70;;;;;;6369812;22;20048;-76
2023/05/19 06:46:03;;;;;;;3.65;2.35;;;18.70;78.60;;;;;;6370175;22;20010;-77
2023/05/19 06:48:29;;;;;;;3.75;1.70;;;18.80;78.20;;;;;;6370291;22;19999;-84
2023/05/19 06:50:55;;;;;;;2.10;1.80;;;18.80;78.10;;;;;;6368603;22;20051;-83
2023/05/19 06:53:21;;;;;;;2.75;1.92;;;18.90;77.50;;;;;;6369848;22;20021;-84
2023/05/19 06:55:49;;;;;;;2.90;1.70;;;19.00;77.20;;;;;;6370229;22;20065;-84
2023/05/19 06:58:15;;;;;;;3.10;1.80;;;19.00;77.00;;;;;;6371294;22;19998;-84
2023/05/19 07:00:42;;;;;;;1.77;1.38;;;19.00;76.60;;;;;;6369606;22;19998;-83
2023/05/19 07:03:07;;;;;;;1.77;1.27;;;19.00;76.60;;;;;;6370028;22;20008;-83
2023/05/19 07:05:33;;;;;;;2.00;1.70;;;19.10;76.00;;;;;;6371208;22;20061;-82
2023/05/19 07:07:59;;;;;;;2.78;1.33;;;19.00;75.50;;;;;;6370769;22;20069;-83
2023/05/19 07:10:24;;;;;;;2.55;1.77;;;19.10;75.40;;;;;;6371011;22;20427;-82
2023/05/19 07:12:50;;;;;;;2.03;1.52;;;19.10;75.10;;;;;;6370893;22;20002;-82
2023/05/19 07:15:16;;;;;;;2.70;1.52;;;19.10;75.50;;;;;;6343139;22;20003;-84
2023/05/19 07:17:42;;;;;;;2.83;2.13;;;19.10;75.40;;;;;;6342960;22;20026;-84
2023/05/19 07:20:10;;;;;;;2.72;1.90;;;19.20;75.40;;;;;;6370505;22;20071;-83
2023/05/19 07:22:38;;;;;;;2.35;1.70;;;19.20;74.90;;;;;;6370622;22;20003;-82
2023/05/19 07:25:05;;;;;;;3.67;1.60;;;19.20;75.10;;;;;;6370840;22;19998;-82
2023/05/19 07:27:30;;;;;;;2.55;1.58;;;19.20;76.00;;;;;;6370786;22;20012;-82
2023/05/19 07:29:56;;;;;;;2.55;1.63;;;19.20;75.10;;;;;;6370531;22;20045;-82
2023/05/19 07:32:21;;;;;;;1.40;1.20;;;19.30;75.10;;;;;;6370607;22;20051;-83
2023/05/19 07:34:47;;;;;;;1.75;1.40;;;19.30;74.80;;;;;;6371084;22;20005;-83
2023/05/19 07:37:13;;;;;;;2.30;1.40;;;19.30;74.70;;;;;;6370568;22;19998;-82
2023/05/19 07:39:38;;;;;;;1.45;1.30;;;19.20;75.00;;;;;;6370332;22;19994;-82
2023/05/19 07:42:04;;;;;;;2.63;1.58;;;19.20;75.20;;;;;;6370874;22;20008;-82
2023/05/19 07:44:30;;;;;;;2.22;1.10;;;19.30;75.50;;;;;;6370839;22;20088;-82
2023/05/19 07:46:56;;;;;;;1.75;1.20;;;19.30;75.90;;;;;;6370525;22;19998;-82
2023/05/19 07:49:21;;;;;;;2.67;1.70;;;19.40;76.10;;;;;;6370741;22;20469;-82
2023/05/19 07:51:47;;;;;;;2.17;1.70;;;19.40;76.10;;;;;;6370820;22;20006;-82
2023/05/19 07:54:13;;;;;;;2.78;1.50;;;19.50;75.80;;;;;;6370527;22;20047;-82
2023/05/19 07:56:38;;;;;;;2.28;1.30;;;19.50;75.60;;;;;;6370889;22;19994;-83
2023/05/19 07:59:04;;;;;;;1.55;1.20;;;19.50;75.40;;;;;;6370929;22;19998;-83
2023/05/19 08:01:31;;;;;;;1.83;1.20;;;19.60;75.60;;;;;;6371080;22;19998;-83
2023/05/19 08:03:57;;;;;;;2.97;1.02;;;19.60;75.00;;;;;;6369910;22;19999;-83
2023/05/19 08:06:24;;;;;;;2.58;1.48;;;19.60;75.50;;;;;;6369981;22;20002;-84
2023/05/19 08:08:49;;;;;;;1.45;1.23;;;19.60;74.70;;;;;;6370604;22;19998;-84
2023/05/19 08:11:15;;;;;;;2.00;1.27;;;19.60;74.80;;;;;;6370264;22;20003;-85
2023/05/19 08:13:41;;;;;;;1.80;1.20;;;19.60;75.00;;;;;;6370437;22;20408;-85
2023/05/19 08:16:07;;;;;;;1.20;0.90;;;19.60;75.00;;;;;;6370271;22;20003;-86
2023/05/19 08:18:32;;;;;;;3.05;1.92;;;19.70;75.40;;;;;;6369289;22;20396;-82
2023/05/19 08:20:58;;;;;;;1.85;1.25;;;19.70;75.80;;;;;;6370029;22;20055;-83
2023/05/19 08:23:23;;;;;;;1.73;1.10;;;19.70;75.70;;;;;;6370583;22;20002;-82
2023/05/19 08:25:50;;;;;;;2.35;1.15;;;19.70;75.60;;;;;;6369994;22;20014;-82
2023/05/19 08:28:15;;;;;;;2.88;1.33;;;19.80;75.50;;;;;;6370168;22;20125;-82
2023/05/19 08:30:41;;;;;;;1.58;1.30;;;19.80;75.10;;;;;;6369973;22;20416;-82
2023/05/19 08:33:07;;;;;;;1.80;1.40;;;19.80;75.30;;;;;;6370509;22;19998;-83
2023/05/19 08:35:33;;;;;;;8.25;1.20;;;19.90;75.70;;;;;;6370572;22;20006;-83
2023/05/19 08:37:58;;;;;;;1.65;1.30;;;19.90;75.70;;;;;;6370305;22;20002;-83
2023/05/19 08:40:26;;;;;;;1.88;1.30;;;19.90;75.50;;;;;;6370625;22;20002;-82
2023/05/19 08:42:52;;;;;;;2.72;1.40;;;20.00;76.00;;;;;;6370240;22;20002;-82
2023/05/19 08:45:18;;;;;;;2.17;1.17;;;20.10;76.50;;;;;;6370396;22;20006;-82
2023/05/19 08:47:46;;;;;;;1.00;0.90;;;20.10;76.20;;;;;;6342320;22;20313;-82
2023/05/19 08:50:20;;;;;;;1.35;1.10;;;20.20;75.90;;;;;;6369746;22;19998;-83
2023/05/19 08:52:54;;;;;;;1.90;1.10;;;20.20;75.40;;;;;;6369725;22;20009;-83
2023/05/19 08:55:42;;;;;;;1.38;0.95;;;20.20;75.60;;;;;;6370057;22;19999;-83
2023/05/19 08:58:10;;;;;;;2.53;1.17;;;20.30;75.90;;;;;;6369495;22;20459;-83
2023/05/19 09:00:36;;;;;;;1.08;0.70;;;20.40;75.10;;;;;;6369731;22;19994;-83
2023/05/19 09:03:02;;;;;;;1.20;0.88;;;20.40;75.40;;;;;;6369611;22;20002;-84
2023/05/19 09:05:28;;;;;;;1.13;0.65;;;20.40;75.00;;;;;;6341669;22;20075;-82
2023/05/19 09:07:55;;;;;;;1.92;0.70;;;20.40;75.00;;;;;;6370297;22;19995;-83
2023/05/19 09:10:21;;;;;;;2.05;0.60;;;20.40;74.90;;;;;;6370124;22;20047;-82
2023/05/19 09:12:48;;;;;;;1.08;0.70;;;20.40;75.00;;;;;;6369096;22;20006;-83
2023/05/19 09:15:20;;;;;;;1.27;0.70;;;20.40;75.10;;;;;;6338908;22;20006;-83
2023/05/19 09:17:48;;;;;;;2.05;0.82;;;20.40;75.30;;;;;;6369087;22;20018;-82
2023/05/19 09:20:16;;;;;;;2.45;0.75;;;20.50;75.10;;;;;;6369295;22;19995;-82
2023/05/19 09:22:49;;;;;;;0.50;0.50;;;20.50;74.90;;;;;;6369159;22;19998;-84
2023/05/19 09:25:25;;;;;;;1.42;0.57;;;20.60;75.00;;;;;;6369915;22;20010;-85
2023/05/19 09:27:53;;;;;;;0.70;0.60;;;20.60;74.50;;;;;;6369680;22;20003;-84
2023/05/19 09:30:19;;;;;;;0.70;0.60;;;20.70;74.40;;;;;;6368532;22;20021;-84
2023/05/19 09:32:45;;;;;;;1.05;0.60;;;20.80;74.70;;;;;;6369355;22;20002;-84
2023/05/19 09:35:16;;;;;;;0.68;0.63;;;20.80;74.30;;;;;;6370131;22;19999;-84
2023/05/19 09:37:42;;;;;;;3.40;0.47;;;20.80;72.90;;;;;;6369824;22;20477;-83
2023/05/19 09:40:13;;;;;;;2.00;0.50;;;20.90;73.00;;;;;;6369648;22;19998;-84
2023/05/19 09:42:40;;;;;;;1.08;0.50;;;20.90;71.70;;;;;;6371498;22;19999;-83
2023/05/19 09:45:08;;;;;;;1.23;0.45;;;20.80;72.40;;;;;;6372197;22;20101;-84
2023/05/19 09:47:40;;;;;;;1.35;0.68;;;20.80;73.10;;;;;;6371190;22;20002;-84
2023/05/19 09:50:10;;;;;;;2.05;0.50;;;20.90;73.00;;;;;;6371316;22;19999;-84
2023/05/19 09:52:42;;;;;;;1.13;0.40;;;21.00;72.80;;;;;;6371469;22;20428;-85
2023/05/19 09:55:10;;;;;;;0.40;0.40;;;21.10;72.40;;;;;;6370760;22;20002;-84
2023/05/19 09:57:36;;;;;;;2.10;0.70;;;21.10;72.40;;;;;;6371532;22;20002;-84
2023/05/19 10:00:18;;;;;;;0.50;0.40;;;21.20;71.60;;;;;;6372017;22;20002;-84
2023/05/19 10:02:45;;;;;;;3.25;0.40;;;21.20;71.50;;;;;;6371498;22;20358;-83
2023/05/19 10:05:19;;;;;;;1.27;0.52;;;21.30;69.30;;;;;;6371536;22;20420;-83
2023/05/19 10:07:47;;;;;;;0.47;0.38;;;21.40;70.50;;;;;;6371051;22;20005;-83
2023/05/19 10:10:13;;;;;;;2.22;0.47;;;21.50;71.40;;;;;;6371312;22;19998;-85
2023/05/19 10:12:40;;;;;;;0.82;0.55;;;21.60;71.50;;;;;;6371626;22;20030;-87
2023/05/19 10:15:11;;;;;;;1.95;0.47;;;21.80;70.70;;;;;;6371867;22;20062;-85
2023/05/19 10:17:39;;;;;;;1.02;0.30;;;21.90;71.00;;;;;;6371200;22;20346;-84
2023/05/19 10:20:08;;;;;;;0.70;0.55;;;22.00;70.70;;;;;;6342567;22;20383;-84
2023/05/19 10:22:34;;;;;;;0.82;0.50;;;22.20;70.30;;;;;;6371222;22;20419;-84
2023/05/19 10:24:59;;;;;;;0.80;0.45;;;22.30;68.90;;;;;;6371386;22;20055;-84
2023/05/19 10:27:27;;;;;;;1.48;0.90;;;22.40;69.10;;;;;;6371500;22;20073;-84
2023/05/19 10:29:55;;;;;;;1.67;0.50;;;22.60;68.00;;;;;;6370808;22;20075;-84
2023/05/19 10:32:27;;;;;;;1.95;0.40;;;22.50;66.90;;;;;;6371150;22;20003;-84
2023/05/19 10:35:19;;;;;;;1.00;0.40;;;22.60;67.20;;;;;;6370309;22;19999;-84
2023/05/19 10:37:57;;;;;;;0.65;0.55;;;22.50;66.80;;;;;;6371431;22;19998;-84
2023/05/19 10:40:36;;;;;;;4.95;0.68;;;22.50;67.10;;;;;;6371390;22;20002;-84
2023/05/19 10:43:31;;;;;;;0.82;0.40;;;22.50;65.10;;;;;;6344483;22;20401;-85
2023/05/19 10:45:57;;;;;;;0.68;0.35;;;22.40;65.80;;;;;;6374858;22;20025;-84
2023/05/19 10:48:22;;;;;;;2.22;0.60;;;22.40;66.40;;;;;;6371168;22;20413;-84
2023/05/19 10:50:52;;;;;;;0.75;0.40;;;22.50;66.30;;;;;;6342901;22;20010;-84
2023/05/19 10:53:21;;;;;;;0.35;0.30;;;22.60;66.10;;;;;;6371207;22;20006;-84
2023/05/19 10:56:02;;;;;;;0.40;0.30;;;22.70;67.10;;;;;;6342852;22;20504;-84
2023/05/19 10:58:43;;;;;;;1.98;0.43;;;22.90;65.80;;;;;;6370404;22;20002;-84
2023/05/19 11:01:16;;;;;;;0.30;0.30;;;23.00;66.40;;;;;;6370549;22;20009;-84
2023/05/19 11:03:53;;;;;;;0.73;0.43;;;23.10;65.70;;;;;;6369784;22;20006;-84
2023/05/19 11:06:29;;;;;;;1.10;0.50;;;23.20;65.40;;;;;;6342979;22;20379;-84
2023/05/19 11:08:56;;;;;;;0.52;0.45;;;23.40;65.50;;;;;;6370142;22;19998;-84
2023/05/19 11:11:21;;;;;;;0.90;0.30;;;23.50;65.70;;;;;;6368758;22;20017;-85
2023/05/19 11:13:50;;;;;;;0.47;0.40;;;23.50;64.70;;;;;;6371702;22;20110;-83
2023/05/19 11:16:26;;;;;;;1.00;0.50;;;23.50;64.00;;;;;;6370122;22;20070;-84
2023/05/19 11:18:53;;;;;;;0.93;0.40;;;23.60;63.80;;;;;;6370786;22;19999;-84
2023/05/19 11:21:19;;;;;;;2.08;0.60;;;23.60;63.70;;;;;;6370850;22;20010;-84
2023/05/19 11:23:45;;;;;;;0.98;0.30;;;23.60;63.80;;;;;;6371042;22;20002;-84
2023/05/19 11:26:11;;;;;;;1.33;0.57;;;23.70;64.40;;;;;;6369824;22;20003;-84
2023/05/19 11:28:38;;;;;;;2.50;0.50;;;23.70;64.50;;;;;;6367819;22;20211;-84
2023/05/19 11:31:06;;;;;;;0.88;0.40;;;23.90;64.50;;;;;;6368879;22;20078;-84
2023/05/19 11:33:33;;;;;;;0.73;0.50;;;24.00;64.60;;;;;;6369450;22;19994;-84
2023/05/19 11:36:00;;;;;;;0.40;0.40;;;24.20;63.50;;;;;;6369997;22;20788;-85
2023/05/19 11:38:28;;;;;;;0.70;0.40;;;24.50;63.60;;;;;;6370318;22;20078;-84
2023/05/19 11:40:55;;;;;;;0.40;0.32;;;24.80;64.20;;;;;;6341614;22;20002;-84
2023/05/19 11:43:24;;;;;;;1.25;0.43;;;25.00;63.50;;;;;;6370524;22;20001;-84
2023/05/19 11:45:50;;;;;;;0.90;0.40;;;25.10;62.50;;;;;;6370207;22;20459;-84
2023/05/19 11:48:19;;;;;;;0.77;0.45;;;25.00;61.00;;;;;;6341942;22;19999;-84
2023/05/19 11:50:45;;;;;;;0.50;0.20;;;24.80;60.70;;;;;;6368728;22;20534;-83
2023/05/19 11:53:12;;;;;;;0.60;0.35;;;24.60;61.70;;;;;;6367390;22;20024;-83
2023/05/19 11:55:43;;;;;;;1.42;0.40;;;24.40;61.40;;;;;;6366650;22;20029;-77
2023/05/19 11:58:09;;;;;;;0.50;0.40;;;24.20;62.70;;;;;;6366089;22;20005;-77
2023/05/19 12:00:39;;;;;;;1.90;0.50;;;24.10;62.50;;;;;;6367683;22;20002;-78
2023/05/19 12:03:06;;;;;;;1.58;0.50;;;24.00;62.20;;;;;;6367227;22;20093;-77
2023/05/19 12:05:46;;;;;;;0.45;0.38;;;23.70;62.00;;;;;;6366573;22;20002;-77
2023/05/19 12:08:11;;;;;;;;;;;23.60;62.70;;;;;;6366855;22;20002;-77
2023/05/19 12:10:38;;;;;;;0.95;0.28;;;23.50;63.50;;;;;;6369941;22;19977;-77
2023/05/19 12:13:07;;;;;;;1.00;0.40;;;23.30;63.70;;;;;;6370574;22;20002;-77
2023/05/19 12:15:33;;;;;;;1.17;0.22;;;23.30;64.20;;;;;;6341455;22;20006;-77
2023/05/19 12:18:00;;;;;;;0.30;0.30;;;23.20;64.40;;;;;;6368693;22;20033;-77
2023/05/19 12:20:28;;;;;;;0.85;0.40;;;23.20;65.00;;;;;;6370121;22;20312;-77
2023/05/19 12:22:55;;;;;;;0.82;0.55;;;23.10;65.10;;;;;;6369738;22;20082;-76
2023/05/19 12:25:22;;;;;;;1.15;0.60;;;23.00;65.60;;;;;;6370302;22;20336;-76
2023/05/19 12:27:48;;;;;;;1.20;0.30;;;23.00;65.30;;;;;;6369995;22;20006;-76
2023/05/19 12:30:15;;;;;;;1.50;0.50;;;22.90;64.90;;;;;;6369827;22;20018;-76
2023/05/19 12:32:42;;;;;;;0.32;0.30;;;22.90;64.20;;;;;;6369886;22;20014;-77
2023/05/19 12:35:08;;;;;;;0.50;0.25;;;22.70;64.60;;;;;;6370038;22;20290;-77
2023/05/19 12:37:39;;;;;;;1.05;0.40;;;22.70;64.00;;;;;;6341753;22;20357;-77
2023/05/19 12:40:06;;;;;;;0.50;0.40;;;22.60;63.70;;;;;;6369622;22;20005;-77
2023/05/19 12:42:33;;;;;;;0.43;0.43;;;22.50;63.80;;;;;;6369297;22;20002;-77
2023/05/19 12:45:01;;;;;;;0.55;0.40;;;22.50;63.70;;;;;;6369722;22;20043;-77
2023/05/19 12:47:34;;;;;;;0.40;0.35;;;22.50;64.10;;;;;;6369640;22;20009;-77
2023/05/19 12:50:06;;;;;;;2.80;0.30;;;22.50;64.50;;;;;;6369988;22;20071;-77
2023/05/19 12:52:34;;;;;;;0.50;0.40;;;22.50;65.50;;;;;;6369529;22;20002;-77